createdAt,value
2023-03-06T00:00:57.467Z,0.68
2023-03-06T00:03:28.127Z,0.74
2023-03-06T00:05:59.009Z,0.73
2023-03-06T00:08:28.309Z,0.72
2023-03-06T00:11:00.959Z,0.70
2023-03-06T00:13:35.117Z,0.68
2023-03-06T00:16:07.113Z,0.66
2023-03-06T00:18:35.835Z,0.71
2023-03-06T00:21:14.194Z,0.78
2023-03-06T00:23:49.782Z,0.76
2023-03-06T00:26:18.866Z,0.73
2023-03-06T00:28:47.552Z,0.70
2023-03-06T00:31:18.630Z,0.68
2023-03-06T00:33:46.734Z,0.69
2023-03-06T00:36:15.915Z,0.75
2023-03-06T00:38:43.937Z,0.82
2023-03-06T00:41:13.150Z,0.80
2023-03-06T00:43:41.692Z,0.78
2023-03-06T00:46:09.858Z,0.75
2023-03-06T00:48:38.109Z,0.73
2023-03-06T00:51:10.486Z,0.72
2023-03-06T00:53:41.828Z,0.79
2023-03-06T00:56:10.562Z,0.85
2023-03-06T00:58:40.455Z,0.84
2023-03-06T01:01:08.869Z,0.82
2023-03-06T01:03:37.982Z,0.80
2023-03-06T01:06:07.583Z,0.77
2023-03-06T01:08:37.593Z,0.76
2023-03-06T01:11:05.877Z,0.81
2023-03-06T01:13:33.884Z,0.87
2023-03-06T01:16:11.493Z,0.85
2023-03-06T01:18:40.275Z,0.82
2023-03-06T01:21:08.458Z,0.80
2023-03-06T01:23:39.442Z,0.78
2023-03-06T01:26:07.873Z,0.77
2023-03-06T01:28:37.595Z,0.83
2023-03-06T01:31:06.432Z,0.89
2023-03-06T01:33:35.666Z,0.88
2023-03-06T01:36:05.995Z,0.87
2023-03-06T01:38:35.116Z,0.85
2023-03-06T01:41:03.957Z,0.83
2023-03-06T01:43:36.889Z,0.81
2023-03-06T01:46:26.607Z,0.87
2023-03-06T01:48:59.210Z,0.92
2023-03-06T01:51:35.708Z,0.88
2023-03-06T01:54:08.038Z,0.85
2023-03-06T01:56:36.974Z,0.80
2023-03-06T01:59:05.477Z,0.77
2023-03-06T02:01:35.261Z,0.75
2023-03-06T02:04:03.638Z,0.80
2023-03-06T02:06:33.998Z,0.85
2023-03-06T02:09:04.927Z,0.82
2023-03-06T02:11:33.889Z,0.79
2023-03-06T02:14:02.099Z,0.76
2023-03-06T02:16:32.865Z,0.74
2023-03-06T02:19:03.012Z,0.73
2023-03-06T02:21:33.195Z,0.79
2023-03-06T02:24:13.522Z,0.85
2023-03-06T02:26:41.676Z,0.84
2023-03-06T02:29:12.214Z,0.80
2023-03-06T02:31:42.436Z,0.76
2023-03-06T02:34:16.722Z,0.73
2023-03-06T02:36:48.870Z,0.72
2023-03-06T02:39:18.776Z,0.77
2023-03-06T02:41:48.564Z,0.82
2023-03-06T02:44:17.498Z,0.79
2023-03-06T02:46:45.567Z,0.77
2023-03-06T02:49:14.093Z,0.73
2023-03-06T02:51:43.766Z,0.69
2023-03-06T02:54:13.529Z,0.68
2023-03-06T02:56:45.091Z,0.75
2023-03-06T02:59:13.351Z,0.80
2023-03-06T03:01:47.904Z,0.78
2023-03-06T03:04:16.703Z,0.76
2023-03-06T03:06:44.914Z,0.73
2023-03-06T03:09:13.244Z,0.72
2023-03-06T03:11:44.512Z,0.71
2023-03-06T03:14:13.426Z,0.77
2023-03-06T03:16:41.738Z,0.82
2023-03-06T03:19:10.074Z,0.80
2023-03-06T03:21:40.705Z,0.75
2023-03-06T03:24:09.006Z,0.72
2023-03-06T03:26:37.391Z,0.69
2023-03-06T03:29:11.562Z,0.68
2023-03-06T03:31:39.914Z,0.74
2023-03-06T03:34:08.917Z,0.81
2023-03-06T03:36:39.775Z,0.81
2023-03-06T03:39:09.080Z,0.80
2023-03-06T03:41:37.356Z,0.78
2023-03-06T03:44:08.592Z,0.77
2023-03-06T03:46:37.046Z,0.76
2023-03-06T03:49:06.267Z,0.76
2023-03-06T03:51:34.380Z,0.81
2023-03-06T03:54:03.572Z,0.86
2023-03-06T03:56:35.283Z,0.83
2023-03-06T03:59:08.722Z,0.80
2023-03-06T04:01:42.596Z,0.77
2023-03-06T04:04:10.743Z,0.74
2023-03-06T04:06:39.825Z,0.72
2023-03-06T04:09:08.981Z,0.77
2023-03-06T04:11:38.850Z,0.81
2023-03-06T04:14:08.492Z,0.80
2023-03-06T04:16:37.356Z,0.79
2023-03-06T04:19:05.639Z,0.76
2023-03-06T04:21:34.929Z,0.74
2023-03-06T04:24:03.717Z,0.74
2023-03-06T04:26:31.914Z,0.79
2023-03-06T04:29:00.456Z,0.83
2023-03-06T04:31:31.662Z,0.80
2023-03-06T04:33:59.896Z,0.76
2023-03-06T04:36:30.922Z,0.73
2023-03-06T04:39:02.425Z,0.70
2023-03-06T04:41:34.666Z,0.67
2023-03-06T04:44:03.133Z,0.74
2023-03-06T04:46:31.279Z,0.79
2023-03-06T04:48:59.438Z,0.77
2023-03-06T04:51:27.874Z,0.75
2023-03-06T04:53:55.880Z,0.74
2023-03-06T04:56:24.527Z,0.71
2023-03-06T04:58:52.633Z,0.67
2023-03-06T05:01:21.269Z,0.66
2023-03-06T05:03:50.134Z,0.73
2023-03-06T05:06:18.649Z,0.76
2023-03-06T05:08:47.311Z,0.73
2023-03-06T05:11:18.581Z,0.71
2023-03-06T05:13:47.078Z,0.70
2023-03-06T05:16:15.703Z,0.68
2023-03-06T05:18:44.590Z,0.66
2023-03-06T05:21:12.987Z,0.73
2023-03-06T05:23:41.887Z,0.79
2023-03-06T05:26:12.472Z,0.78
2023-03-06T05:28:40.778Z,0.75
2023-03-06T05:31:09.222Z,0.72
2023-03-06T05:33:37.337Z,0.70
2023-03-06T05:36:08.066Z,0.69
2023-03-06T05:38:37.788Z,0.75
2023-03-06T05:41:06.170Z,0.80
2023-03-06T05:43:34.263Z,0.78
2023-03-06T05:46:03.484Z,0.75
2023-03-06T05:48:32.076Z,0.73
2023-03-06T05:51:00.668Z,0.71
2023-03-06T05:53:29.536Z,0.68
2023-03-06T05:55:58.567Z,0.73
2023-03-06T05:58:27.665Z,0.78
2023-03-06T06:00:55.756Z,0.75
2023-03-06T06:04:11.732Z,0.75
2023-03-06T06:06:39.862Z,0.71
2023-03-06T06:09:08.667Z,0.69
2023-03-06T06:11:36.732Z,0.75
2023-03-06T06:14:04.764Z,0.81
2023-03-06T06:16:34.600Z,0.79
2023-03-06T06:19:02.733Z,0.75
2023-03-06T06:21:31.009Z,0.71
2023-03-06T06:23:59.225Z,0.67
2023-03-06T06:26:27.285Z,0.70
2023-03-06T06:28:55.484Z,0.76
2023-03-06T06:31:23.552Z,0.75
2023-03-06T06:33:51.686Z,0.71
2023-03-06T06:36:20.440Z,0.67
2023-03-06T06:38:48.978Z,0.65
2023-03-06T06:44:08.620Z,0.71
2023-03-06T06:47:20.939Z,0.76
2023-03-06T06:49:25.869Z,0.74
2023-03-06T06:51:54.099Z,0.71
2023-03-06T06:54:22.601Z,0.68
2023-03-06T06:56:51.247Z,0.67
2023-03-06T06:59:20.281Z,0.65
2023-03-06T07:01:48.733Z,0.74
2023-03-06T07:04:20.228Z,0.81
2023-03-06T07:06:48.414Z,0.81
2023-03-06T07:09:17.018Z,0.78
2023-03-06T07:11:45.304Z,0.75
2023-03-06T07:14:14.614Z,0.72
2023-03-06T07:16:43.886Z,0.71
2023-03-06T07:19:13.128Z,0.77
2023-03-06T07:21:42.242Z,0.83
2023-03-06T07:24:10.373Z,0.82
2023-03-06T07:26:38.467Z,0.80
2023-03-06T07:29:06.909Z,0.78
2023-03-06T07:31:35.335Z,0.77
2023-03-06T07:34:05.003Z,0.77
2023-03-06T07:36:34.411Z,0.83
2023-03-06T07:39:02.488Z,0.89
2023-03-06T07:41:30.862Z,0.88
2023-03-06T07:44:00.107Z,0.85
2023-03-06T07:46:28.452Z,0.83
2023-03-06T07:48:56.678Z,0.81
2023-03-06T07:51:24.781Z,0.86
2023-03-06T07:53:53.045Z,0.91
2023-03-06T07:56:23.490Z,0.89
2023-03-06T07:58:51.585Z,0.89
2023-03-06T08:01:20.799Z,0.86
2023-03-06T08:03:50.336Z,0.86
2023-03-06T08:06:23.651Z,0.93
2023-03-06T08:08:52.740Z,1.00
2023-03-06T08:11:22.445Z,0.98
2023-03-06T08:13:53.876Z,0.97
2023-03-06T08:16:23.023Z,0.96
2023-03-06T08:18:53.687Z,0.97
2023-03-06T08:21:23.928Z,1.04
2023-03-06T08:23:52.041Z,1.11
2023-03-06T08:26:22.078Z,1.14
2023-03-06T08:28:53.977Z,1.16
2023-03-06T08:31:33.464Z,1.17
2023-03-06T08:34:03.741Z,1.19
2023-03-06T08:36:35.351Z,1.29
2023-03-06T08:39:04.115Z,1.35
2023-03-06T08:41:32.687Z,1.35
2023-03-06T08:44:01.577Z,1.33
2023-03-06T08:46:30.677Z,1.30
2023-03-06T08:49:00.209Z,1.30
2023-03-06T08:51:29.168Z,1.29
2023-03-06T08:53:58.343Z,1.30
2023-03-06T08:56:28.300Z,1.39
2023-03-06T08:58:57.922Z,1.48
2023-03-06T09:01:27.963Z,1.48
2023-03-06T09:04:15.910Z,1.47
2023-03-06T09:06:45.894Z,1.45
2023-03-06T09:09:14.219Z,1.46
2023-03-06T09:11:42.864Z,1.46
2023-03-06T09:14:11.390Z,1.46
2023-03-06T09:16:39.685Z,1.49
2023-03-06T09:19:07.976Z,1.50
2023-03-06T09:21:36.890Z,1.61
2023-03-06T09:24:05.138Z,1.72
2023-03-06T09:26:51.607Z,1.74
2023-03-06T09:29:20.142Z,1.74
2023-03-06T09:31:48.357Z,1.73
2023-03-06T09:34:17.106Z,1.72
2023-03-06T09:36:56.082Z,1.71
2023-03-06T09:39:25.866Z,1.69
2023-03-06T09:41:54.607Z,1.68
2023-03-06T09:44:27.953Z,1.69
2023-03-06T09:47:13.686Z,1.67
2023-03-06T09:49:57.055Z,1.67
2023-03-06T09:52:53.162Z,1.65
2023-03-06T09:55:27.386Z,1.65
2023-03-06T09:58:07.532Z,1.73
2023-03-06T10:00:42.068Z,1.79
2023-03-06T10:03:16.175Z,1.79
2023-03-06T10:05:49.572Z,1.78
2023-03-06T10:08:44.427Z,1.76
2023-03-06T10:11:20.238Z,1.76
2023-03-06T10:13:57.605Z,1.77
2023-03-06T10:16:30.139Z,1.77
2023-03-06T10:19:07.264Z,1.77
2023-03-06T10:21:54.095Z,1.79
2023-03-06T10:24:39.499Z,1.89
2023-03-06T10:27:26.780Z,1.98
2023-03-06T10:30:03.821Z,1.98
2023-03-06T10:32:49.137Z,1.99
2023-03-06T10:35:48.519Z,2.00
2023-03-06T10:38:29.762Z,2.01
2023-03-06T10:41:11.678Z,2.02
2023-03-06T10:44:00.051Z,2.06
2023-03-06T10:46:40.017Z,2.09
2023-03-06T10:49:31.405Z,2.12
2023-03-06T10:52:06.886Z,2.24
2023-03-06T10:54:41.043Z,2.32
2023-03-06T10:57:19.646Z,2.34
2023-03-06T10:59:53.049Z,2.36
2023-03-06T11:02:41.376Z,2.38
2023-03-06T11:05:27.970Z,2.42
2023-03-06T11:07:59.859Z,2.44
2023-03-06T11:10:29.218Z,2.46
2023-03-06T11:13:21.368Z,2.47
2023-03-06T11:16:23.266Z,2.49
2023-03-06T11:19:01.433Z,2.51
2023-03-06T11:21:31.956Z,2.50
2023-03-06T11:24:08.914Z,2.51
2023-03-06T11:26:53.567Z,2.53
2023-03-06T11:29:43.644Z,2.53
2023-03-06T11:32:17.283Z,2.53
2023-03-06T11:34:50.384Z,2.54
2023-03-06T11:37:37.536Z,2.64
2023-03-06T11:40:11.507Z,2.73
2023-03-06T11:42:40.508Z,2.75
2023-03-06T11:45:37.393Z,2.76
2023-03-06T11:48:11.917Z,2.78
2023-03-06T11:50:44.033Z,2.78
2023-03-06T11:53:14.464Z,2.79
2023-03-06T11:56:07.616Z,2.80
2023-03-06T11:59:01.052Z,2.82
2023-03-06T12:02:08.249Z,2.81
2023-03-06T12:04:42.306Z,2.80
2023-03-06T12:07:29.325Z,2.79
2023-03-06T12:10:51.713Z,2.81
2023-03-06T12:13:59.508Z,2.82
2023-03-06T12:17:02.144Z,2.83
2023-03-06T12:19:33.360Z,2.85
2023-03-06T12:22:07.223Z,2.89
2023-03-06T12:24:54.294Z,3.03
2023-03-06T12:27:31.771Z,3.19
2023-03-06T12:30:29.453Z,3.23
2023-03-06T12:33:43.640Z,3.28
2023-03-06T12:36:20.313Z,3.38
2023-03-06T12:38:58.000Z,3.44
2023-03-06T12:41:58.065Z,3.50
2023-03-06T12:44:35.021Z,3.55
2023-03-06T12:47:10.395Z,3.58
2023-03-06T12:49:41.691Z,3.58
2023-03-06T12:52:12.460Z,3.60
2023-03-06T12:54:40.716Z,3.62
2023-03-06T12:57:09.559Z,3.63
2023-03-06T12:59:48.668Z,3.65
2023-03-06T13:02:31.710Z,3.66
2023-03-06T13:05:18.350Z,3.67
2023-03-06T13:08:13.960Z,3.67
2023-03-06T13:10:42.750Z,3.67
2023-03-06T13:13:34.534Z,3.67
2023-03-06T13:16:22.756Z,3.68
2023-03-06T13:18:57.763Z,3.69
2023-03-06T13:21:45.887Z,3.70
2023-03-06T13:24:21.660Z,3.71
2023-03-06T13:27:07.508Z,3.71
2023-03-06T13:29:49.189Z,3.74
2023-03-06T13:32:19.175Z,3.84
2023-03-06T13:34:48.692Z,3.93
2023-03-06T13:37:20.457Z,3.95
2023-03-06T13:39:55.983Z,3.96
2023-03-06T13:42:37.209Z,3.97
2023-03-06T13:45:25.222Z,3.96
2023-03-06T13:50:46.892Z,3.95
2023-03-06T13:53:30.175Z,3.96
2023-03-06T13:56:09.562Z,3.98
2023-03-06T13:58:46.457Z,4.00
2023-03-06T14:01:35.842Z,4.02
2023-03-06T14:04:17.850Z,4.04
2023-03-06T14:07:10.291Z,4.06
2023-03-06T14:09:42.445Z,4.09
2023-03-06T14:12:23.820Z,4.19
2023-03-06T14:17:22.036Z,4.30
2023-03-06T14:19:50.702Z,4.31
2023-03-06T14:22:21.351Z,4.34
2023-03-06T14:25:01.394Z,4.36
2023-03-06T14:27:52.044Z,4.38
2023-03-06T14:30:25.218Z,4.39
2023-03-06T14:32:57.203Z,4.40
2023-03-06T14:35:29.184Z,4.41
2023-03-06T14:38:02.783Z,4.42
2023-03-06T14:40:42.924Z,4.42
2023-03-06T14:43:20.800Z,4.43
2023-03-06T14:45:51.126Z,4.43
2023-03-06T14:48:19.798Z,4.45
2023-03-06T14:50:50.911Z,4.46
2023-03-06T14:53:33.141Z,4.48
2023-03-06T14:56:05.080Z,4.50
2023-03-06T14:58:36.735Z,4.60
2023-03-06T15:01:06.797Z,4.67
2023-03-06T15:03:42.642Z,4.68
2023-03-06T15:06:15.664Z,4.69
2023-03-06T15:08:46.624Z,4.69
2023-03-06T15:11:15.227Z,4.69
2023-03-06T15:14:02.240Z,4.68
2023-03-06T15:16:30.711Z,4.66
2023-03-06T15:19:02.285Z,4.65
2023-03-06T15:21:37.811Z,4.65
2023-03-06T15:24:41.579Z,4.66
2023-03-06T15:27:16.643Z,4.64
2023-03-06T15:29:44.712Z,4.62
2023-03-06T15:32:35.972Z,4.62
2023-03-06T15:35:26.091Z,4.62
2023-03-06T15:37:54.391Z,4.60
2023-03-06T15:40:23.764Z,4.60
2023-03-06T15:42:52.361Z,4.60
2023-03-06T15:45:22.605Z,4.59
2023-03-06T15:47:54.602Z,4.59
2023-03-06T15:50:27.379Z,4.59
2023-03-06T15:52:55.564Z,4.59
2023-03-06T15:55:25.745Z,4.66
2023-03-06T15:57:59.956Z,4.73
2023-03-06T16:00:38.541Z,4.73
2023-03-06T16:03:09.700Z,4.72
2023-03-06T16:05:38.739Z,4.71
2023-03-06T16:08:06.902Z,4.71
2023-03-06T16:10:38.297Z,4.70
2023-03-06T16:13:10.264Z,4.70
2023-03-06T16:15:40.240Z,4.69
2023-03-06T16:18:11.191Z,4.68
2023-03-06T16:20:40.330Z,4.67
2023-03-06T16:23:10.772Z,4.66
2023-03-06T16:25:40.318Z,4.64
2023-03-06T16:28:12.545Z,4.62
2023-03-06T16:30:44.318Z,4.59
2023-03-06T16:33:12.895Z,4.57
2023-03-06T16:35:44.599Z,4.55
2023-03-06T16:38:13.594Z,4.52
2023-03-06T16:40:42.609Z,4.49
2023-03-06T16:43:10.846Z,4.46
2023-03-06T16:45:39.975Z,4.46
2023-03-06T16:48:17.094Z,4.52
2023-03-06T16:50:45.489Z,4.59
2023-03-06T16:53:18.079Z,4.58
2023-03-06T16:55:46.544Z,4.57
2023-03-06T16:58:14.674Z,4.56
2023-03-06T17:00:44.012Z,4.56
2023-03-06T17:03:12.260Z,4.55
2023-03-06T17:05:41.060Z,4.53
2023-03-06T17:08:12.321Z,4.50
2023-03-06T17:10:41.622Z,4.47
2023-03-06T17:13:10.934Z,4.45
2023-03-06T17:15:39.326Z,4.42
2023-03-06T17:18:09.048Z,4.37
2023-03-06T17:20:51.266Z,4.31
2023-03-06T17:23:21.377Z,4.25
2023-03-06T17:25:49.431Z,4.25
2023-03-06T17:28:17.802Z,4.23
2023-03-06T17:30:45.972Z,4.18
2023-03-06T17:33:16.689Z,4.14
2023-03-06T17:35:44.834Z,4.11
2023-03-06T17:38:17.556Z,4.06
2023-03-06T17:40:45.857Z,4.02
2023-03-06T17:43:14.166Z,3.98
2023-03-06T17:45:42.187Z,3.94
2023-03-06T17:48:10.251Z,3.92
2023-03-06T17:50:42.542Z,3.91
2023-03-06T17:53:12.567Z,3.90
2023-03-06T17:55:41.507Z,3.90
2023-03-06T17:58:12.313Z,3.90
2023-03-06T18:00:41.685Z,3.98
2023-03-06T18:03:09.902Z,4.06
2023-03-06T18:05:39.022Z,4.07
2023-03-06T18:08:08.545Z,4.07
2023-03-06T18:10:40.676Z,4.08
2023-03-06T18:13:10.343Z,4.09
2023-03-06T18:15:40.016Z,4.09
2023-03-06T18:18:10.016Z,4.08
2023-03-06T18:20:41.302Z,4.07
2023-03-06T18:23:10.949Z,4.07
2023-03-06T18:25:40.013Z,4.06
2023-03-06T18:28:08.143Z,4.05
2023-03-06T18:30:37.470Z,4.03
2023-03-06T18:33:07.525Z,4.02
2023-03-06T18:35:36.324Z,4.02
2023-03-06T18:38:04.424Z,3.99
2023-03-06T18:40:32.655Z,3.97
2023-03-06T18:43:01.244Z,4.00
2023-03-06T18:45:30.293Z,4.01
2023-03-06T18:47:58.427Z,3.94
2023-03-06T18:50:30.041Z,3.88
2023-03-06T18:52:58.071Z,3.83
2023-03-06T18:55:26.440Z,3.78
2023-03-06T18:57:55.015Z,3.72
2023-03-06T19:00:23.770Z,3.65
2023-03-06T19:02:52.202Z,3.58
2023-03-06T19:05:20.519Z,3.58
2023-03-06T19:07:49.718Z,3.62
2023-03-06T19:10:17.789Z,3.60
2023-03-06T19:12:46.339Z,3.54
2023-03-06T19:15:14.453Z,3.51
2023-03-06T19:17:43.560Z,3.47
2023-03-06T19:20:12.274Z,3.50
2023-03-06T19:22:40.369Z,3.55
2023-03-06T19:25:09.808Z,3.54
2023-03-06T19:27:39.580Z,3.51
2023-03-06T19:30:09.058Z,3.48
2023-03-06T19:32:37.854Z,3.45
2023-03-06T19:35:06.465Z,3.50
2023-03-06T19:37:36.639Z,3.52
2023-03-06T19:40:05.879Z,3.48
2023-03-06T19:42:34.245Z,3.43
2023-03-06T19:45:02.404Z,3.35
2023-03-06T19:47:30.703Z,3.37
2023-03-06T19:49:59.142Z,3.38
2023-03-06T19:52:27.272Z,3.34
2023-03-06T19:54:56.479Z,3.31
2023-03-06T19:57:24.533Z,3.28
2023-03-06T19:59:56.065Z,3.32
2023-03-06T20:02:27.397Z,3.35
2023-03-06T20:04:55.497Z,3.32
2023-03-06T20:07:23.656Z,3.28
2023-03-06T20:10:02.577Z,3.25
2023-03-06T20:12:32.707Z,3.30
2023-03-06T20:15:01.117Z,3.34
2023-03-06T20:17:30.110Z,3.27
2023-03-06T20:19:58.450Z,3.20
2023-03-06T20:22:26.754Z,3.16
2023-03-06T20:24:55.614Z,3.19
2023-03-06T20:27:23.703Z,3.20
2023-03-06T20:29:51.977Z,3.15
2023-03-06T20:32:20.131Z,3.10
2023-03-06T20:34:48.746Z,3.06
2023-03-06T20:37:16.741Z,3.08
2023-03-06T20:39:45.605Z,3.08
2023-03-06T20:42:13.908Z,3.04
2023-03-06T20:44:42.273Z,2.97
2023-03-06T20:47:10.494Z,2.95
2023-03-06T20:49:38.500Z,3.02
2023-03-06T20:53:45.941Z,3.10
2023-03-06T20:56:13.932Z,3.11
2023-03-06T20:58:40.795Z,3.09
2023-03-06T21:01:09.147Z,3.12
2023-03-06T21:03:50.704Z,3.13
2023-03-06T21:06:18.168Z,3.07
2023-03-06T21:08:44.888Z,3.01
2023-03-06T21:11:11.678Z,2.96
2023-03-06T21:13:40.225Z,3.01
2023-03-06T21:16:09.116Z,3.03
2023-03-06T21:18:36.505Z,3.01
2023-03-06T21:21:13.456Z,2.97
2023-03-06T21:23:40.144Z,2.94
2023-03-06T21:26:11.189Z,2.98
2023-03-06T21:28:37.996Z,3.02
2023-03-06T21:31:06.580Z,2.98
2023-03-06T21:33:33.468Z,2.93
2023-03-06T21:36:00.335Z,2.91
2023-03-06T21:38:27.827Z,2.96
2023-03-06T21:40:55.427Z,3.03
2023-03-06T21:43:22.643Z,3.02
2023-03-06T21:45:52.116Z,2.98
2023-03-06T21:48:18.841Z,2.97
2023-03-06T21:50:46.058Z,3.02
2023-03-06T21:53:12.757Z,3.07
2023-03-06T21:55:40.146Z,3.06
2023-03-06T21:58:06.915Z,3.03
2023-03-06T22:00:36.428Z,3.00
2023-03-06T22:03:04.174Z,3.03
2023-03-06T22:05:33.836Z,3.08
2023-03-06T22:08:01.478Z,3.06
2023-03-06T22:10:28.805Z,3.01
2023-03-06T22:12:56.720Z,2.96
2023-03-06T22:15:23.367Z,2.99
2023-03-06T22:17:53.101Z,3.04
2023-03-06T22:20:20.136Z,3.00
2023-03-06T22:22:49.027Z,2.95
2023-03-06T22:25:15.797Z,2.91
2023-03-06T22:27:43.185Z,2.95
2023-03-06T22:30:10.484Z,3.01
2023-03-06T22:32:37.520Z,2.98
2023-03-06T22:35:06.266Z,2.95
2023-03-06T22:37:43.492Z,2.93
2023-03-06T22:40:13.578Z,2.99
2023-03-06T22:42:42.006Z,3.04
2023-03-06T22:45:11.716Z,3.01
2023-03-06T22:47:39.352Z,2.97
2023-03-06T22:50:06.520Z,2.93
2023-03-06T22:52:33.362Z,2.97
2023-03-06T22:55:07.440Z,3.02
2023-03-06T22:57:34.827Z,2.99
2023-03-06T23:00:02.159Z,2.95
2023-03-06T23:02:33.731Z,2.91
2023-03-06T23:05:00.451Z,2.90
2023-03-06T23:07:27.739Z,2.95
2023-03-06T23:10:00.963Z,2.96
2023-03-06T23:12:46.610Z,2.90
2023-03-06T23:15:32.352Z,2.83
2023-03-06T23:18:17.880Z,2.79
2023-03-06T23:21:15.434Z,2.84
2023-03-06T23:24:04.936Z,2.82
2023-03-06T23:26:33.656Z,2.77
2023-03-06T23:29:00.573Z,2.74
2023-03-06T23:31:28.456Z,2.71
2023-03-06T23:33:59.416Z,2.76
2023-03-06T23:36:27.208Z,2.82
2023-03-06T23:38:54.128Z,2.80
2023-03-06T23:41:23.508Z,2.77
2023-03-06T23:43:51.423Z,2.75
2023-03-06T23:46:19.169Z,2.76
2023-03-06T23:48:46.032Z,2.82
2023-03-06T23:51:15.391Z,2.82
2023-03-06T23:53:43.228Z,2.77
2023-03-06T23:56:10.154Z,2.74
2023-03-06T23:58:38.559Z,2.72
